sensor_id;sensor_type;location;lat;lon;timestamp;P1;durP1;ratioP1;P2;durP2;ratioP2
20320;SDS011;10318;47.674;9.052;2022-12-01T00:02:22;20.85;;;13.68;;
20320;SDS011;10318;47.674;9.052;2022-12-01T00:04:49;21.52;;;13.80;;
20320;SDS011;10318;47.674;9.052;2022-12-01T00:07:16;18.80;;;12.63;;
20320;SDS011;10318;47.674;9.052;2022-12-01T00:09:42;21.60;;;13.65;;
20320;SDS011;10318;47.674;9.052;2022-12-01T00:12:28;21.83;;;13.05;;
20320;SDS011;10318;47.674;9.052;2022-12-01T00:14:54;21.20;;;13.52;;
20320;SDS011;10318;47.674;9.052;2022-12-01T00:17:27;21.67;;;12.75;;
20320;SDS011;10318;47.674;9.052;2022-12-01T00:19:55;19.67;;;12.50;;
20320;SDS011;10318;47.674;9.052;2022-12-01T00:22:22;21.35;;;12.88;;
20320;SDS011;10318;47.674;9.052;2022-12-01T00:24:50;19.08;;;12.55;;
20320;SDS011;10318;47.674;9.052;2022-12-01T00:27:16;21.75;;;13.60;;
20320;SDS011;10318;47.674;9.052;2022-12-01T00:29:44;23.85;;;14.60;;
20320;SDS011;10318;47.674;9.052;2022-12-01T00:32:11;21.25;;;13.15;;
20320;SDS011;10318;47.674;9.052;2022-12-01T00:34:38;20.38;;;12.95;;
20320;SDS011;10318;47.674;9.052;2022-12-01T00:37:05;20.27;;;13.40;;
20320;SDS011;10318;47.674;9.052;2022-12-01T00:39:32;21.15;;;13.40;;
20320;SDS011;10318;47.674;9.052;2022-12-01T00:41:59;21.38;;;13.60;;
20320;SDS011;10318;47.674;9.052;2022-12-01T00:44:25;21.98;;;13.55;;
20320;SDS011;10318;47.674;9.052;2022-12-01T00:46:52;24.52;;;14.77;;
20320;SDS011;10318;47.674;9.052;2022-12-01T00:49:19;21.38;;;13.98;;
20320;SDS011;10318;47.674;9.052;2022-12-01T00:51:45;19.98;;;12.13;;
20320;SDS011;10318;47.674;9.052;2022-12-01T00:54:12;21.95;;;14.73;;
20320;SDS011;10318;47.674;9.052;2022-12-01T00:56:39;23.30;;;14.05;;
20320;SDS011;10318;47.674;9.052;2022-12-01T00:59:05;19.67;;;12.65;;
20320;SDS011;10318;47.674;9.052;2022-12-01T01:01:32;23.38;;;14.35;;
20320;SDS011;10318;47.674;9.052;2022-12-01T01:04:00;21.23;;;13.23;;
20320;SDS011;10318;47.674;9.052;2022-12-01T01:06:27;21.10;;;12.30;;
20320;SDS011;10318;47.674;9.052;2022-12-01T01:08:53;20.45;;;13.07;;
20320;SDS011;10318;47.674;9.052;2022-12-01T01:11:20;20.92;;;13.25;;
20320;SDS011;10318;47.674;9.052;2022-12-01T01:13:47;20.10;;;13.40;;
20320;SDS011;10318;47.674;9.052;2022-12-01T01:16:17;21.80;;;13.82;;
20320;SDS011;10318;47.674;9.052;2022-12-01T01:18:44;22.60;;;14.15;;
20320;SDS011;10318;47.674;9.052;2022-12-01T01:21:12;18.80;;;12.82;;
20320;SDS011;10318;47.674;9.052;2022-12-01T01:23:39;19.98;;;12.70;;
20320;SDS011;10318;47.674;9.052;2022-12-01T01:26:07;19.45;;;12.70;;
20320;SDS011;10318;47.674;9.052;2022-12-01T01:28:36;22.38;;;14.07;;
20320;SDS011;10318;47.674;9.052;2022-12-01T01:31:09;21.48;;;12.70;;
20320;SDS011;10318;47.674;9.052;2022-12-01T01:33:37;20.23;;;12.70;;
20320;SDS011;10318;47.674;9.052;2022-12-01T01:36:03;21.60;;;12.63;;
20320;SDS011;10318;47.674;9.052;2022-12-01T01:38:31;19.77;;;12.00;;
20320;SDS011;10318;47.674;9.052;2022-12-01T01:40:58;19.45;;;12.38;;
20320;SDS011;10318;47.674;9.052;2022-12-01T01:46:07;19.75;;;12.45;;
20320;SDS011;10318;47.674;9.052;2022-12-01T01:48:34;21.25;;;12.93;;
20320;SDS011;10318;47.674;9.052;2022-12-01T01:51:01;20.15;;;12.30;;
20320;SDS011;10318;47.674;9.052;2022-12-01T01:53:28;18.58;;;11.68;;
20320;SDS011;10318;47.674;9.052;2022-12-01T01:55:56;20.25;;;12.55;;
20320;SDS011;10318;47.674;9.052;2022-12-01T01:58:23;19.42;;;11.65;;
20320;SDS011;10318;47.674;9.052;2022-12-01T02:00:50;20.73;;;12.38;;
20320;SDS011;10318;47.674;9.052;2022-12-01T02:03:17;19.58;;;11.57;;
20320;SDS011;10318;47.674;9.052;2022-12-01T02:05:44;19.30;;;12.27;;
20320;SDS011;10318;47.674;9.052;2022-12-01T02:08:11;17.80;;;10.98;;
20320;SDS011;10318;47.674;9.052;2022-12-01T02:18:43;21.67;;;12.52;;
20320;SDS011;10318;47.674;9.052;2022-12-01T02:21:22;17.55;;;11.48;;
20320;SDS011;10318;47.674;9.052;2022-12-01T02:26:35;24.20;;;13.50;;
20320;SDS011;10318;47.674;9.052;2022-12-01T02:31:42;22.92;;;13.85;;
20320;SDS011;10318;47.674;9.052;2022-12-01T02:36:46;21.10;;;13.18;;
20320;SDS011;10318;47.674;9.052;2022-12-01T02:39:20;23.20;;;14.82;;
20320;SDS011;10318;47.674;9.052;2022-12-01T02:41:50;24.27;;;14.30;;
20320;SDS011;10318;47.674;9.052;2022-12-01T02:46:49;24.10;;;14.30;;
20320;SDS011;10318;47.674;9.052;2022-12-01T02:49:21;22.98;;;14.07;;
20320;SDS011;10318;47.674;9.052;2022-12-01T02:51:49;23.92;;;13.63;;
20320;SDS011;10318;47.674;9.052;2022-12-01T02:54:16;22.63;;;14.68;;
20320;SDS011;10318;47.674;9.052;2022-12-01T02:56:44;22.23;;;12.93;;
20320;SDS011;10318;47.674;9.052;2022-12-01T02:59:13;22.52;;;13.57;;
20320;SDS011;10318;47.674;9.052;2022-12-01T03:01:53;21.17;;;12.85;;
20320;SDS011;10318;47.674;9.052;2022-12-01T03:09:35;18.23;;;11.80;;
20320;SDS011;10318;47.674;9.052;2022-12-01T03:14:39;19.27;;;12.27;;
20320;SDS011;10318;47.674;9.052;2022-12-01T03:17:12;23.65;;;13.77;;
20320;SDS011;10318;47.674;9.052;2022-12-01T03:19:41;20.38;;;12.85;;
20320;SDS011;10318;47.674;9.052;2022-12-01T03:22:10;20.08;;;13.02;;
20320;SDS011;10318;47.674;9.052;2022-12-01T03:24:39;20.50;;;12.68;;
20320;SDS011;10318;47.674;9.052;2022-12-01T03:27:07;19.73;;;12.27;;
20320;SDS011;10318;47.674;9.052;2022-12-01T03:29:35;17.27;;;11.13;;
20320;SDS011;10318;47.674;9.052;2022-12-01T03:32:16;22.08;;;12.95;;
20320;SDS011;10318;47.674;9.052;2022-12-01T03:34:46;19.13;;;12.38;;
20320;SDS011;10318;47.674;9.052;2022-12-01T03:37:20;19.90;;;12.85;;
20320;SDS011;10318;47.674;9.052;2022-12-01T03:39:50;20.27;;;12.85;;
20320;SDS011;10318;47.674;9.052;2022-12-01T03:42:28;20.65;;;12.73;;
20320;SDS011;10318;47.674;9.052;2022-12-01T03:44:56;17.92;;;11.52;;
20320;SDS011;10318;47.674;9.052;2022-12-01T03:47:25;23.60;;;13.43;;
20320;SDS011;10318;47.674;9.052;2022-12-01T03:49:54;21.05;;;12.65;;
20320;SDS011;10318;47.674;9.052;2022-12-01T03:55:13;21.50;;;12.98;;
20320;SDS011;10318;47.674;9.052;2022-12-01T04:00:10;20.50;;;13.48;;
20320;SDS011;10318;47.674;9.052;2022-12-01T04:02:39;20.42;;;12.60;;
20320;SDS011;10318;47.674;9.052;2022-12-01T04:05:06;23.10;;;13.80;;
20320;SDS011;10318;47.674;9.052;2022-12-01T04:07:35;22.55;;;13.75;;
20320;SDS011;10318;47.674;9.052;2022-12-01T04:10:02;22.65;;;14.43;;
20320;SDS011;10318;47.674;9.052;2022-12-01T04:12:29;21.23;;;13.88;;
20320;SDS011;10318;47.674;9.052;2022-12-01T04:14:56;23.83;;;14.25;;
20320;SDS011;10318;47.674;9.052;2022-12-01T04:17:23;20.95;;;12.80;;
20320;SDS011;10318;47.674;9.052;2022-12-01T04:19:50;24.20;;;13.30;;
20320;SDS011;10318;47.674;9.052;2022-12-01T04:22:17;21.27;;;12.00;;
20320;SDS011;10318;47.674;9.052;2022-12-01T04:24:43;22.70;;;14.05;;
20320;SDS011;10318;47.674;9.052;2022-12-01T04:27:10;22.70;;;13.07;;
20320;SDS011;10318;47.674;9.052;2022-12-01T04:29:37;21.08;;;13.43;;
20320;SDS011;10318;47.674;9.052;2022-12-01T04:32:04;24.67;;;14.68;;
20320;SDS011;10318;47.674;9.052;2022-12-01T04:34:31;22.98;;;14.32;;
20320;SDS011;10318;47.674;9.052;2022-12-01T04:36:57;22.52;;;14.25;;
20320;SDS011;10318;47.674;9.052;2022-12-01T04:39:24;24.05;;;13.43;;
20320;SDS011;10318;47.674;9.052;2022-12-01T04:41:50;24.70;;;14.13;;
20320;SDS011;10318;47.674;9.052;2022-12-01T04:44:17;22.98;;;13.73;;
20320;SDS011;10318;47.674;9.052;2022-12-01T04:46:44;23.50;;;14.10;;
20320;SDS011;10318;47.674;9.052;2022-12-01T04:49:10;20.92;;;13.75;;
20320;SDS011;10318;47.674;9.052;2022-12-01T04:51:37;22.25;;;13.80;;
20320;SDS011;10318;47.674;9.052;2022-12-01T04:54:04;24.55;;;14.93;;
20320;SDS011;10318;47.674;9.052;2022-12-01T04:56:31;22.17;;;13.63;;
20320;SDS011;10318;47.674;9.052;2022-12-01T04:58:59;21.80;;;12.82;;
20320;SDS011;10318;47.674;9.052;2022-12-01T05:01:26;25.73;;;14.77;;
20320;SDS011;10318;47.674;9.052;2022-12-01T05:03:53;22.92;;;14.60;;
20320;SDS011;10318;47.674;9.052;2022-12-01T05:06:20;25.00;;;13.70;;
20320;SDS011;10318;47.674;9.052;2022-12-01T05:08:48;28.15;;;15.20;;
20320;SDS011;10318;47.674;9.052;2022-12-01T05:11:15;27.95;;;15.82;;
20320;SDS011;10318;47.674;9.052;2022-12-01T05:13:43;28.48;;;15.50;;
20320;SDS011;10318;47.674;9.052;2022-12-01T05:16:20;24.83;;;15.23;;
20320;SDS011;10318;47.674;9.052;2022-12-01T05:18:48;26.00;;;14.45;;
20320;SDS011;10318;47.674;9.052;2022-12-01T05:21:16;28.88;;;15.95;;
20320;SDS011;10318;47.674;9.052;2022-12-01T05:23:43;24.50;;;15.27;;
20320;SDS011;10318;47.674;9.052;2022-12-01T05:26:11;26.10;;;14.80;;
20320;SDS011;10318;47.674;9.052;2022-12-01T05:28:37;26.13;;;15.85;;
20320;SDS011;10318;47.674;9.052;2022-12-01T05:31:06;28.05;;;15.65;;
20320;SDS011;10318;47.674;9.052;2022-12-01T05:33:33;24.13;;;14.60;;
20320;SDS011;10318;47.674;9.052;2022-12-01T05:35:59;25.45;;;16.08;;
20320;SDS011;10318;47.674;9.052;2022-12-01T05:38:26;27.67;;;16.13;;
20320;SDS011;10318;47.674;9.052;2022-12-01T05:40:53;26.90;;;16.25;;
20320;SDS011;10318;47.674;9.052;2022-12-01T05:43:21;27.02;;;15.23;;
20320;SDS011;10318;47.674;9.052;2022-12-01T05:45:55;29.75;;;17.48;;
20320;SDS011;10318;47.674;9.052;2022-12-01T05:48:22;26.08;;;16.08;;
20320;SDS011;10318;47.674;9.052;2022-12-01T05:50:49;27.77;;;16.15;;
20320;SDS011;10318;47.674;9.052;2022-12-01T05:53:16;26.15;;;16.67;;
20320;SDS011;10318;47.674;9.052;2022-12-01T05:55:42;27.75;;;15.90;;
20320;SDS011;10318;47.674;9.052;2022-12-01T05:58:09;24.10;;;14.73;;
20320;SDS011;10318;47.674;9.052;2022-12-01T06:00:37;25.70;;;15.32;;
20320;SDS011;10318;47.674;9.052;2022-12-01T06:03:11;28.38;;;16.50;;
20320;SDS011;10318;47.674;9.052;2022-12-01T06:05:38;26.17;;;15.55;;
20320;SDS011;10318;47.674;9.052;2022-12-01T06:08:04;26.77;;;16.08;;
20320;SDS011;10318;47.674;9.052;2022-12-01T06:10:32;26.45;;;15.80;;
20320;SDS011;10318;47.674;9.052;2022-12-01T06:12:58;24.63;;;14.45;;
20320;SDS011;10318;47.674;9.052;2022-12-01T06:15:25;27.38;;;16.02;;
20320;SDS011;10318;47.674;9.052;2022-12-01T06:17:52;31.98;;;17.55;;
20320;SDS011;10318;47.674;9.052;2022-12-01T06:20:19;30.67;;;17.15;;
20320;SDS011;10318;47.674;9.052;2022-12-01T06:22:46;26.48;;;16.38;;
20320;SDS011;10318;47.674;9.052;2022-12-01T06:25:13;28.50;;;14.90;;
20320;SDS011;10318;47.674;9.052;2022-12-01T06:27:40;28.30;;;17.50;;
20320;SDS011;10318;47.674;9.052;2022-12-01T06:30:07;26.08;;;15.73;;
20320;SDS011;10318;47.674;9.052;2022-12-01T06:32:34;28.70;;;16.38;;
20320;SDS011;10318;47.674;9.052;2022-12-01T06:35:00;27.90;;;16.63;;
20320;SDS011;10318;47.674;9.052;2022-12-01T06:37:27;27.50;;;17.05;;
20320;SDS011;10318;47.674;9.052;2022-12-01T06:39:54;28.55;;;16.70;;
20320;SDS011;10318;47.674;9.052;2022-12-01T06:42:21;31.33;;;17.55;;
20320;SDS011;10318;47.674;9.052;2022-12-01T06:44:48;31.25;;;17.65;;
20320;SDS011;10318;47.674;9.052;2022-12-01T06:47:14;31.88;;;18.70;;
20320;SDS011;10318;47.674;9.052;2022-12-01T06:49:41;29.40;;;17.17;;
20320;SDS011;10318;47.674;9.052;2022-12-01T06:52:08;30.13;;;18.23;;
20320;SDS011;10318;47.674;9.052;2022-12-01T06:54:35;30.65;;;17.45;;
20320;SDS011;10318;47.674;9.052;2022-12-01T06:57:03;29.17;;;17.65;;
20320;SDS011;10318;47.674;9.052;2022-12-01T06:59:30;30.27;;;17.58;;
20320;SDS011;10318;47.674;9.052;2022-12-01T07:01:57;32.05;;;18.13;;
20320;SDS011;10318;47.674;9.052;2022-12-01T07:04:24;30.52;;;17.88;;
20320;SDS011;10318;47.674;9.052;2022-12-01T07:06:51;31.88;;;18.85;;
20320;SDS011;10318;47.674;9.052;2022-12-01T07:09:17;29.02;;;18.20;;
20320;SDS011;10318;47.674;9.052;2022-12-01T07:11:44;31.27;;;18.55;;
20320;SDS011;10318;47.674;9.052;2022-12-01T07:14:19;32.35;;;18.90;;
20320;SDS011;10318;47.674;9.052;2022-12-01T07:16:47;29.98;;;17.52;;
20320;SDS011;10318;47.674;9.052;2022-12-01T07:19:14;30.98;;;18.50;;
20320;SDS011;10318;47.674;9.052;2022-12-01T07:21:40;34.63;;;18.10;;
20320;SDS011;10318;47.674;9.052;2022-12-01T07:24:07;31.77;;;18.60;;
20320;SDS011;10318;47.674;9.052;2022-12-01T07:26:34;32.55;;;18.45;;
20320;SDS011;10318;47.674;9.052;2022-12-01T07:29:01;35.72;;;20.05;;
20320;SDS011;10318;47.674;9.052;2022-12-01T07:31:27;32.60;;;18.95;;
20320;SDS011;10318;47.674;9.052;2022-12-01T07:33:54;36.25;;;20.13;;
20320;SDS011;10318;47.674;9.052;2022-12-01T07:36:21;33.88;;;19.58;;
20320;SDS011;10318;47.674;9.052;2022-12-01T07:38:47;34.33;;;18.42;;
20320;SDS011;10318;47.674;9.052;2022-12-01T07:41:15;34.97;;;20.30;;
20320;SDS011;10318;47.674;9.052;2022-12-01T07:43:44;32.97;;;19.30;;
20320;SDS011;10318;47.674;9.052;2022-12-01T07:46:18;31.80;;;19.25;;
20320;SDS011;10318;47.674;9.052;2022-12-01T07:48:49;33.03;;;18.88;;
20320;SDS011;10318;47.674;9.052;2022-12-01T07:51:16;32.63;;;19.65;;
20320;SDS011;10318;47.674;9.052;2022-12-01T07:53:43;34.38;;;19.48;;
20320;SDS011;10318;47.674;9.052;2022-12-01T07:56:10;36.38;;;19.92;;
20320;SDS011;10318;47.674;9.052;2022-12-01T07:58:37;36.67;;;21.27;;
20320;SDS011;10318;47.674;9.052;2022-12-01T08:01:05;32.38;;;18.85;;
20320;SDS011;10318;47.674;9.052;2022-12-01T08:03:31;35.33;;;19.35;;
20320;SDS011;10318;47.674;9.052;2022-12-01T08:05:59;34.92;;;19.65;;
20320;SDS011;10318;47.674;9.052;2022-12-01T08:08:26;31.83;;;19.25;;
20320;SDS011;10318;47.674;9.052;2022-12-01T08:10:52;31.00;;;18.58;;
20320;SDS011;10318;47.674;9.052;2022-12-01T08:13:19;35.25;;;19.73;;
20320;SDS011;10318;47.674;9.052;2022-12-01T08:15:48;35.90;;;19.67;;
20320;SDS011;10318;47.674;9.052;2022-12-01T08:18:15;36.60;;;20.30;;
20320;SDS011;10318;47.674;9.052;2022-12-01T08:20:42;32.88;;;19.08;;
20320;SDS011;10318;47.674;9.052;2022-12-01T08:23:09;33.47;;;19.13;;
20320;SDS011;10318;47.674;9.052;2022-12-01T08:25:38;36.35;;;20.48;;
20320;SDS011;10318;47.674;9.052;2022-12-01T08:28:07;33.97;;;20.73;;
20320;SDS011;10318;47.674;9.052;2022-12-01T08:30:34;33.50;;;21.00;;
20320;SDS011;10318;47.674;9.052;2022-12-01T08:33:01;38.10;;;21.20;;
20320;SDS011;10318;47.674;9.052;2022-12-01T08:35:28;34.53;;;20.50;;
20320;SDS011;10318;47.674;9.052;2022-12-01T08:37:55;36.13;;;19.75;;
20320;SDS011;10318;47.674;9.052;2022-12-01T08:40:21;36.20;;;21.08;;
20320;SDS011;10318;47.674;9.052;2022-12-01T08:42:48;36.13;;;21.10;;
20320;SDS011;10318;47.674;9.052;2022-12-01T08:45:17;39.10;;;21.42;;
20320;SDS011;10318;47.674;9.052;2022-12-01T08:47:44;36.15;;;21.17;;
20320;SDS011;10318;47.674;9.052;2022-12-01T08:50:10;33.60;;;19.20;;
20320;SDS011;10318;47.674;9.052;2022-12-01T08:52:37;34.55;;;20.10;;
20320;SDS011;10318;47.674;9.052;2022-12-01T08:55:04;33.67;;;19.52;;
20320;SDS011;10318;47.674;9.052;2022-12-01T08:57:31;36.42;;;20.30;;
20320;SDS011;10318;47.674;9.052;2022-12-01T08:59:57;37.15;;;21.02;;
20320;SDS011;10318;47.674;9.052;2022-12-01T09:02:24;37.72;;;19.58;;
20320;SDS011;10318;47.674;9.052;2022-12-01T09:04:51;35.75;;;20.20;;
20320;SDS011;10318;47.674;9.052;2022-12-01T09:07:18;34.88;;;20.08;;
20320;SDS011;10318;47.674;9.052;2022-12-01T09:09:51;35.92;;;19.52;;
20320;SDS011;10318;47.674;9.052;2022-12-01T09:12:18;34.10;;;20.17;;
20320;SDS011;10318;47.674;9.052;2022-12-01T09:14:45;34.10;;;19.63;;
20320;SDS011;10318;47.674;9.052;2022-12-01T09:17:14;35.25;;;20.58;;
20320;SDS011;10318;47.674;9.052;2022-12-01T09:19:41;35.88;;;20.10;;
20320;SDS011;10318;47.674;9.052;2022-12-01T09:22:09;34.78;;;19.17;;
20320;SDS011;10318;47.674;9.052;2022-12-01T09:24:35;33.17;;;19.58;;
20320;SDS011;10318;47.674;9.052;2022-12-01T09:27:02;37.25;;;20.83;;
20320;SDS011;10318;47.674;9.052;2022-12-01T09:29:29;35.25;;;20.33;;
20320;SDS011;10318;47.674;9.052;2022-12-01T09:31:56;37.28;;;20.25;;
20320;SDS011;10318;47.674;9.052;2022-12-01T09:34:23;35.88;;;19.15;;
20320;SDS011;10318;47.674;9.052;2022-12-01T09:36:53;34.42;;;19.17;;
20320;SDS011;10318;47.674;9.052;2022-12-01T09:39:20;34.60;;;19.00;;
20320;SDS011;10318;47.674;9.052;2022-12-01T09:41:57;32.97;;;19.52;;
20320;SDS011;10318;47.674;9.052;2022-12-01T09:46:52;32.38;;;19.63;;
20320;SDS011;10318;47.674;9.052;2022-12-01T09:49:24;33.78;;;19.40;;
20320;SDS011;10318;47.674;9.052;2022-12-01T09:51:52;36.35;;;21.38;;
20320;SDS011;10318;47.674;9.052;2022-12-01T09:54:19;31.50;;;19.70;;
20320;SDS011;10318;47.674;9.052;2022-12-01T09:56:47;31.88;;;18.65;;
20320;SDS011;10318;47.674;9.052;2022-12-01T09:59:18;35.63;;;19.90;;
20320;SDS011;10318;47.674;9.052;2022-12-01T10:01:54;33.58;;;19.13;;
20320;SDS011;10318;47.674;9.052;2022-12-01T10:11:46;31.92;;;18.17;;
20320;SDS011;10318;47.674;9.052;2022-12-01T10:14:15;33.83;;;18.95;;
20320;SDS011;10318;47.674;9.052;2022-12-01T10:19:22;36.10;;;19.20;;
20320;SDS011;10318;47.674;9.052;2022-12-01T10:21:58;31.05;;;18.30;;
20320;SDS011;10318;47.674;9.052;2022-12-01T10:32:08;31.52;;;18.08;;
20320;SDS011;10318;47.674;9.052;2022-12-01T10:34:37;35.88;;;20.02;;
20320;SDS011;10318;47.674;9.052;2022-12-01T10:37:04;30.83;;;18.67;;
20320;SDS011;10318;47.674;9.052;2022-12-01T10:39:41;33.47;;;19.33;;
20320;SDS011;10318;47.674;9.052;2022-12-01T10:42:11;30.77;;;18.13;;
20320;SDS011;10318;47.674;9.052;2022-12-01T10:44:39;30.58;;;18.15;;
20320;SDS011;10318;47.674;9.052;2022-12-01T10:47:13;30.52;;;18.67;;
20320;SDS011;10318;47.674;9.052;2022-12-01T10:49:42;34.03;;;19.90;;
20320;SDS011;10318;47.674;9.052;2022-12-01T10:52:26;32.83;;;19.42;;
20320;SDS011;10318;47.674;9.052;2022-12-01T10:54:54;32.42;;;18.70;;
20320;SDS011;10318;47.674;9.052;2022-12-01T10:57:21;32.80;;;18.40;;
20320;SDS011;10318;47.674;9.052;2022-12-01T10:59:53;33.67;;;19.40;;
20320;SDS011;10318;47.674;9.052;2022-12-01T11:02:21;28.52;;;18.08;;
20320;SDS011;10318;47.674;9.052;2022-12-01T11:05:05;29.58;;;18.48;;
20320;SDS011;10318;47.674;9.052;2022-12-01T11:07:33;27.05;;;16.73;;
20320;SDS011;10318;47.674;9.052;2022-12-01T11:10:12;31.15;;;17.67;;
20320;SDS011;10318;47.674;9.052;2022-12-01T11:12:41;28.58;;;17.00;;
20320;SDS011;10318;47.674;9.052;2022-12-01T11:15:16;27.15;;;16.80;;
20320;SDS011;10318;47.674;9.052;2022-12-01T11:17:44;28.27;;;18.02;;
20320;SDS011;10318;47.674;9.052;2022-12-01T11:20:24;31.63;;;18.98;;
20320;SDS011;10318;47.674;9.052;2022-12-01T11:23:16;32.03;;;18.38;;
20320;SDS011;10318;47.674;9.052;2022-12-01T11:25:39;26.75;;;15.70;;
20320;SDS011;10318;47.674;9.052;2022-12-01T11:28:14;27.58;;;17.02;;
20320;SDS011;10318;47.674;9.052;2022-12-01T11:30:45;27.05;;;16.67;;
20320;SDS011;10318;47.674;9.052;2022-12-01T11:33:13;28.98;;;16.98;;
20320;SDS011;10318;47.674;9.052;2022-12-01T11:35:44;29.45;;;17.88;;
20320;SDS011;10318;47.674;9.052;2022-12-01T11:38:21;29.50;;;17.40;;
20320;SDS011;10318;47.674;9.052;2022-12-01T11:40:56;27.77;;;16.38;;
20320;SDS011;10318;47.674;9.052;2022-12-01T11:43:24;33.72;;;18.98;;
20320;SDS011;10318;47.674;9.052;2022-12-01T11:45:53;29.67;;;17.48;;
20320;SDS011;10318;47.674;9.052;2022-12-01T11:48:24;28.90;;;17.25;;
20320;SDS011;10318;47.674;9.052;2022-12-01T11:51:02;30.08;;;17.70;;
20320;SDS011;10318;47.674;9.052;2022-12-01T11:53:39;32.30;;;18.58;;
20320;SDS011;10318;47.674;9.052;2022-12-01T11:58:42;28.70;;;17.25;;
20320;SDS011;10318;47.674;9.052;2022-12-01T12:01:23;26.52;;;16.65;;
20320;SDS011;10318;47.674;9.052;2022-12-01T12:07:01;29.25;;;16.42;;
20320;SDS011;10318;47.674;9.052;2022-12-01T12:12:24;28.58;;;16.98;;
20320;SDS011;10318;47.674;9.052;2022-12-01T12:30:23;27.20;;;15.82;;
20320;SDS011;10318;47.674;9.052;2022-12-01T12:40:54;26.10;;;15.73;;
20320;SDS011;10318;47.674;9.052;2022-12-01T12:46:00;27.88;;;15.77;;
20320;SDS011;10318;47.674;9.052;2022-12-01T12:48:32;24.40;;;14.85;;
20320;SDS011;10318;47.674;9.052;2022-12-01T12:51:21;25.20;;;15.32;;
20320;SDS011;10318;47.674;9.052;2022-12-01T12:54:02;28.52;;;15.88;;
20320;SDS011;10318;47.674;9.052;2022-12-01T12:56:30;25.38;;;15.43;;
20320;SDS011;10318;47.674;9.052;2022-12-01T12:59:08;24.63;;;16.05;;
20320;SDS011;10318;47.674;9.052;2022-12-01T13:01:40;22.85;;;14.27;;
20320;SDS011;10318;47.674;9.052;2022-12-01T13:04:16;23.25;;;13.57;;
20320;SDS011;10318;47.674;9.052;2022-12-01T13:06:55;24.83;;;15.35;;
20320;SDS011;10318;47.674;9.052;2022-12-01T13:09:28;22.95;;;14.13;;
20320;SDS011;10318;47.674;9.052;2022-12-01T13:12:07;23.30;;;15.00;;
20320;SDS011;10318;47.674;9.052;2022-12-01T13:14:37;24.33;;;14.85;;
20320;SDS011;10318;47.674;9.052;2022-12-01T13:19:40;22.85;;;14.57;;
20320;SDS011;10318;47.674;9.052;2022-12-01T13:22:11;25.75;;;15.05;;
20320;SDS011;10318;47.674;9.052;2022-12-01T13:24:39;25.40;;;14.43;;
20320;SDS011;10318;47.674;9.052;2022-12-01T13:29:36;22.35;;;12.98;;
20320;SDS011;10318;47.674;9.052;2022-12-01T13:32:24;20.75;;;13.75;;
20320;SDS011;10318;47.674;9.052;2022-12-01T13:34:51;27.25;;;14.45;;
20320;SDS011;10318;47.674;9.052;2022-12-01T13:37:52;22.88;;;14.25;;
20320;SDS011;10318;47.674;9.052;2022-12-01T13:40:19;23.95;;;13.65;;
20320;SDS011;10318;47.674;9.052;2022-12-01T13:43:21;23.23;;;14.68;;
20320;SDS011;10318;47.674;9.052;2022-12-01T13:45:40;23.73;;;15.70;;
20320;SDS011;10318;47.674;9.052;2022-12-01T13:51:02;24.45;;;14.65;;
20320;SDS011;10318;47.674;9.052;2022-12-01T13:53:30;24.83;;;15.55;;
20320;SDS011;10318;47.674;9.052;2022-12-01T13:58:25;21.67;;;13.63;;
20320;SDS011;10318;47.674;9.052;2022-12-01T14:03:52;21.88;;;14.02;;
20320;SDS011;10318;47.674;9.052;2022-12-01T14:09:34;23.35;;;14.07;;
20320;SDS011;10318;47.674;9.052;2022-12-01T14:11:43;22.40;;;13.63;;
20320;SDS011;10318;47.674;9.052;2022-12-01T14:14:20;20.98;;;13.25;;
20320;SDS011;10318;47.674;9.052;2022-12-01T14:16:52;22.75;;;13.55;;
20320;SDS011;10318;47.674;9.052;2022-12-01T14:19:32;20.67;;;13.02;;
20320;SDS011;10318;47.674;9.052;2022-12-01T14:21:59;22.67;;;13.52;;
20320;SDS011;10318;47.674;9.052;2022-12-01T14:24:32;25.80;;;13.48;;
20320;SDS011;10318;47.674;9.052;2022-12-01T14:27:00;21.98;;;12.90;;
20320;SDS011;10318;47.674;9.052;2022-12-01T14:29:29;22.15;;;14.07;;
20320;SDS011;10318;47.674;9.052;2022-12-01T14:34:28;20.13;;;12.95;;
20320;SDS011;10318;47.674;9.052;2022-12-01T14:37:04;22.77;;;13.05;;
20320;SDS011;10318;47.674;9.052;2022-12-01T14:39:32;23.10;;;12.88;;
20320;SDS011;10318;47.674;9.052;2022-12-01T14:42:04;22.63;;;12.75;;
20320;SDS011;10318;47.674;9.052;2022-12-01T14:44:44;19.42;;;13.30;;
20320;SDS011;10318;47.674;9.052;2022-12-01T14:47:24;19.83;;;12.00;;
20320;SDS011;10318;47.674;9.052;2022-12-01T14:50:08;21.60;;;13.15;;
20320;SDS011;10318;47.674;9.052;2022-12-01T14:52:39;23.25;;;13.70;;
20320;SDS011;10318;47.674;9.052;2022-12-01T14:55:14;18.58;;;12.30;;
20320;SDS011;10318;47.674;9.052;2022-12-01T14:57:43;22.15;;;13.25;;
20320;SDS011;10318;47.674;9.052;2022-12-01T15:00:15;23.40;;;13.25;;
20320;SDS011;10318;47.674;9.052;2022-12-01T15:02:47;22.55;;;13.82;;
20320;SDS011;10318;47.674;9.052;2022-12-01T15:05:15;21.70;;;13.63;;
20320;SDS011;10318;47.674;9.052;2022-12-01T15:07:45;21.63;;;12.65;;
20320;SDS011;10318;47.674;9.052;2022-12-01T15:10:20;21.52;;;13.00;;
20320;SDS011;10318;47.674;9.052;2022-12-01T15:12:47;23.13;;;13.23;;
20320;SDS011;10318;47.674;9.052;2022-12-01T15:15:18;21.75;;;13.50;;
20320;SDS011;10318;47.674;9.052;2022-12-01T15:17:50;21.25;;;12.50;;
20320;SDS011;10318;47.674;9.052;2022-12-01T15:22:53;21.90;;;13.55;;
20320;SDS011;10318;47.674;9.052;2022-12-01T15:25:20;23.25;;;13.43;;
20320;SDS011;10318;47.674;9.052;2022-12-01T15:27:49;20.55;;;13.35;;
20320;SDS011;10318;47.674;9.052;2022-12-01T15:30:26;23.33;;;13.60;;
20320;SDS011;10318;47.674;9.052;2022-12-01T15:32:53;20.45;;;12.45;;
20320;SDS011;10318;47.674;9.052;2022-12-01T15:35:20;22.10;;;13.50;;
20320;SDS011;10318;47.674;9.052;2022-12-01T15:37:48;21.27;;;13.55;;
20320;SDS011;10318;47.674;9.052;2022-12-01T15:40:16;21.13;;;13.15;;
20320;SDS011;10318;47.674;9.052;2022-12-01T15:43:04;22.35;;;13.80;;
20320;SDS011;10318;47.674;9.052;2022-12-01T15:45:40;27.02;;;15.07;;
20320;SDS011;10318;47.674;9.052;2022-12-01T15:48:23;26.17;;;14.02;;
20320;SDS011;10318;47.674;9.052;2022-12-01T15:51:01;22.33;;;13.50;;
20320;SDS011;10318;47.674;9.052;2022-12-01T15:53:28;23.10;;;13.45;;
20320;SDS011;10318;47.674;9.052;2022-12-01T15:55:59;25.48;;;13.95;;
20320;SDS011;10318;47.674;9.052;2022-12-01T15:58:27;24.67;;;14.30;;
20320;SDS011;10318;47.674;9.052;2022-12-01T16:00:58;21.52;;;12.98;;
20320;SDS011;10318;47.674;9.052;2022-12-01T16:03:25;22.50;;;13.63;;
20320;SDS011;10318;47.674;9.052;2022-12-01T16:05:52;24.42;;;14.00;;
20320;SDS011;10318;47.674;9.052;2022-12-01T16:08:20;29.30;;;15.18;;
20320;SDS011;10318;47.674;9.052;2022-12-01T16:16:29;24.05;;;13.52;;
20320;SDS011;10318;47.674;9.052;2022-12-01T16:18:57;23.05;;;13.48;;
20320;SDS011;10318;47.674;9.052;2022-12-01T16:21:24;20.83;;;13.15;;
20320;SDS011;10318;47.674;9.052;2022-12-01T16:24:02;23.27;;;13.45;;
20320;SDS011;10318;47.674;9.052;2022-12-01T16:26:29;24.05;;;13.38;;
20320;SDS011;10318;47.674;9.052;2022-12-01T16:28:56;22.13;;;13.48;;
20320;SDS011;10318;47.674;9.052;2022-12-01T16:31:24;27.50;;;14.27;;